Time;durP1;ratioP1;P1;durP2;ratioP2;P2;SDS_P1;SDS_P2;PMS_P1;PMS_P2;Temp;Humidity;BMP_temperature;BMP_pressure;BME280_temperature;BME280_humidity;BME280_pressure;Samples;Min_cycle;Max_cycle;Signal;HPM_P1;HPM_P2
2021/01/03 00:01:34;;;;;;;8.77;7.45;;;0.90;99.90;;;;;;4983889;28;20246;-70
2021/01/03 00:04:00;;;;;;;10.98;7.53;;;1.00;99.90;;;;;;4983965;28;20242;-71
2021/01/03 00:06:26;;;;;;;8.07;7.28;;;1.00;99.90;;;;;;4983370;28;20219;-70
2021/01/03 00:08:52;;;;;;;9.75;7.47;;;0.90;99.90;;;;;;4984029;28;20215;-70
2021/01/03 00:11:18;;;;;;;9.18;7.68;;;0.90;99.90;;;;;;4984113;28;20214;-71
2021/01/03 00:13:45;;;;;;;9.85;7.13;;;0.90;99.90;;;;;;4983687;28;20785;-70
2021/01/03 00:16:11;;;;;;;8.98;6.47;;;0.90;99.90;;;;;;4984104;28;20258;-70
2021/01/03 00:18:38;;;;;;;8.40;7.03;;;1.00;99.90;;;;;;4985002;28;20199;-70
2021/01/03 00:21:04;;;;;;;8.82;6.78;;;0.90;99.90;;;;;;4997501;28;20206;-70
2021/01/03 00:23:30;;;;;;;9.55;6.55;;;0.80;99.90;;;;;;4990855;28;20578;-71
2021/01/03 00:25:57;;;;;;;9.73;6.70;;;0.90;99.90;;;;;;4991487;28;20215;-70
2021/01/03 00:28:23;;;;;;;8.30;6.78;;;0.90;99.90;;;;;;4993460;28;20202;-70
2021/01/03 00:30:50;;;;;;;8.85;7.03;;;0.90;99.90;;;;;;5002558;28;20206;-70
2021/01/03 00:33:17;;;;;;;8.45;7.15;;;0.90;99.90;;;;;;4998288;28;20217;-70
2021/01/03 00:35:43;;;;;;;8.55;6.72;;;0.90;99.90;;;;;;4993580;28;20291;-70
2021/01/03 00:38:11;;;;;;;6.93;5.70;;;0.90;99.90;;;;;;4992076;28;20199;-71
2021/01/03 00:40:38;;;;;;;8.02;6.55;;;0.90;99.90;;;;;;4993471;28;20540;-71
2021/01/03 00:43:04;;;;;;;8.90;6.57;;;0.90;99.90;;;;;;4992288;28;20199;-70
2021/01/03 00:45:31;;;;;;;7.28;5.50;;;0.90;99.90;;;;;;4991667;28;20256;-70
2021/01/03 00:47:58;;;;;;;9.02;6.88;;;0.90;99.90;;;;;;4994149;28;20631;-70
2021/01/03 00:50:26;;;;;;;8.63;6.50;;;0.90;99.90;;;;;;4992881;28;20238;-70
2021/01/03 00:52:52;;;;;;;8.07;6.65;;;0.90;99.90;;;;;;4991446;28;20658;-70
2021/01/03 00:55:19;;;;;;;9.80;6.50;;;0.90;99.90;;;;;;4991574;28;20239;-70
2021/01/03 00:57:45;;;;;;;9.93;7.07;;;0.90;99.90;;;;;;4993167;28;21050;-70
2021/01/03 01:00:16;;;;;;;10.05;6.93;;;0.80;99.90;;;;;;4993708;28;20233;-70
2021/01/03 01:02:42;;;;;;;9.80;7.55;;;0.90;99.90;;;;;;4994136;28;20195;-71
2021/01/03 01:05:11;;;;;;;7.32;6.20;;;0.90;99.90;;;;;;4992675;28;20222;-71
2021/01/03 01:07:37;;;;;;;7.90;7.13;;;0.90;99.90;;;;;;4993278;28;20537;-70
2021/01/03 01:10:05;;;;;;;8.88;6.80;;;0.80;99.90;;;;;;4992617;28;20602;-70
2021/01/03 01:12:34;;;;;;;8.50;6.25;;;0.80;99.90;;;;;;4991206;28;20198;-71
2021/01/03 01:15:05;;;;;;;9.43;6.30;;;0.80;99.90;;;;;;4991740;28;20219;-70
2021/01/03 01:17:31;;;;;;;7.72;6.22;;;0.80;99.90;;;;;;4991953;28;20208;-70
2021/01/03 01:19:57;;;;;;;8.07;6.50;;;0.80;99.90;;;;;;4993533;28;20236;-70
2021/01/03 01:22:24;;;;;;;8.68;6.65;;;0.80;99.90;;;;;;4991494;28;20579;-70
2021/01/03 01:24:50;;;;;;;9.13;6.53;;;0.80;99.90;;;;;;4992159;28;20229;-70
2021/01/03 01:27:16;;;;;;;7.18;6.30;;;0.80;99.90;;;;;;4993729;28;20222;-70
2021/01/03 01:29:43;;;;;;;6.82;6.15;;;0.80;99.90;;;;;;4991977;28;20203;-70
2021/01/03 01:32:09;;;;;;;7.68;6.70;;;0.80;99.90;;;;;;4991756;28;20198;-70
2021/01/03 01:34:35;;;;;;;10.25;6.75;;;0.70;99.90;;;;;;4993314;28;20223;-70
2021/01/03 01:37:01;;;;;;;8.70;6.40;;;0.70;99.90;;;;;;4991622;28;20226;-70
2021/01/03 01:39:28;;;;;;;8.45;6.65;;;0.70;99.90;;;;;;4993950;28;20203;-70
2021/01/03 01:41:54;;;;;;;9.90;6.90;;;0.80;99.90;;;;;;5002159;28;20202;-70
2021/01/03 01:44:20;;;;;;;8.35;7.32;;;0.80;99.90;;;;;;5002436;28;20706;-70
2021/01/03 01:46:52;;;;;;;8.85;6.78;;;0.70;99.90;;;;;;5002506;28;20223;-70
2021/01/03 01:49:19;;;;;;;9.35;6.50;;;0.70;99.90;;;;;;5002667;28;20248;-70
2021/01/03 01:51:49;;;;;;;7.47;6.30;;;0.70;99.90;;;;;;5002368;28;20206;-70
2021/01/03 01:54:19;;;;;;;8.45;6.90;;;0.70;99.90;;;;;;5002423;28;20276;-70
2021/01/03 01:56:53;;;;;;;11.35;7.20;;;0.70;99.90;;;;;;5005220;28;20972;-70
2021/01/03 01:59:27;;;;;;;9.02;6.35;;;0.70;99.90;;;;;;5005389;28;20585;-70
2021/01/03 02:02:02;;;;;;;8.55;6.63;;;0.70;99.90;;;;;;5004550;28;20264;-70
2021/01/03 02:04:32;;;;;;;10.00;6.75;;;0.70;99.90;;;;;;4996728;28;20276;-70
2021/01/03 02:07:05;;;;;;;9.80;7.20;;;0.70;99.90;;;;;;5006237;28;21043;-70
2021/01/03 02:09:42;;;;;;;10.73;7.85;;;0.70;99.90;;;;;;5005861;28;20233;-70
2021/01/03 02:12:14;;;;;;;6.85;6.00;;;0.70;99.90;;;;;;5005603;28;20260;-70
2021/01/03 02:14:42;;;;;;;12.50;7.18;;;0.60;99.90;;;;;;5005855;28;20709;-70
2021/01/03 02:17:09;;;;;;;9.80;6.68;;;0.60;99.90;;;;;;5003211;28;20207;-70
2021/01/03 02:19:35;;;;;;;8.90;7.32;;;0.60;99.90;;;;;;4994000;28;20206;-70
2021/01/03 02:22:08;;;;;;;8.07;6.43;;;0.60;99.90;;;;;;4991910;28;20202;-70
2021/01/03 02:24:43;;;;;;;9.80;7.78;;;0.70;99.90;;;;;;4996191;28;20222;-70
2021/01/03 02:27:16;;;;;;;9.80;7.70;;;0.60;99.90;;;;;;4995439;28;20229;-70
2021/01/03 02:29:46;;;;;;;8.27;7.28;;;0.60;99.90;;;;;;4995514;28;20199;-70
2021/01/03 02:32:12;;;;;;;9.63;7.15;;;0.60;99.90;;;;;;4995018;28;20198;-70
2021/01/03 02:34:43;;;;;;;9.57;7.53;;;0.60;99.90;;;;;;4996787;28;20214;-70
2021/01/03 02:37:15;;;;;;;8.13;7.15;;;0.60;99.90;;;;;;4996047;28;20237;-70
2021/01/03 02:39:50;;;;;;;7.80;6.95;;;0.60;99.90;;;;;;4994353;28;20199;-70
2021/01/03 02:42:20;;;;;;;12.68;7.90;;;0.60;99.90;;;;;;4994731;28;20392;-70
2021/01/03 02:44:46;;;;;;;8.90;7.68;;;0.60;99.90;;;;;;4994077;28;20772;-70
2021/01/03 02:47:13;;;;;;;10.30;7.93;;;0.60;99.90;;;;;;4995125;28;20225;-70
2021/01/03 02:49:40;;;;;;;11.60;8.23;;;0.60;99.90;;;;;;4995601;28;20917;-70
2021/01/03 02:52:11;;;;;;;9.45;7.43;;;0.60;99.90;;;;;;4993923;28;20195;-70
2021/01/03 02:54:37;;;;;;;9.48;7.90;;;0.60;99.90;;;;;;4993872;28;20308;-70
2021/01/03 02:57:04;;;;;;;11.68;9.30;;;0.60;99.90;;;;;;5003624;28;20427;-70
2021/01/03 02:59:31;;;;;;;9.77;7.93;;;0.50;99.90;;;;;;5050927;22;20243;-71
2021/01/03 03:01:57;;;;;;;12.60;8.32;;;0.50;99.90;;;;;;4970954;28;20690;-71
2021/01/03 03:04:24;;;;;;;9.80;7.55;;;0.50;99.90;;;;;;4989267;28;20278;-71
2021/01/03 03:06:50;;;;;;;10.95;8.55;;;0.50;99.90;;;;;;4987112;28;20299;-71
2021/01/03 03:09:16;;;;;;;10.63;8.02;;;0.50;99.90;;;;;;4979843;28;20202;-71
2021/01/03 03:11:45;;;;;;;9.48;7.95;;;0.60;99.90;;;;;;4976736;28;20196;-71
2021/01/03 03:14:11;;;;;;;10.15;8.63;;;0.50;99.90;;;;;;4980400;28;20618;-72
2021/01/03 03:16:39;;;;;;;9.40;7.80;;;0.50;99.90;;;;;;4981745;28;20196;-71
2021/01/03 03:19:05;;;;;;;12.32;7.78;;;0.50;99.90;;;;;;4980481;28;20610;-71
2021/01/03 03:21:31;;;;;;;10.23;8.57;;;0.50;99.90;;;;;;4966978;28;20205;-70
2021/01/03 03:23:57;;;;;;;11.77;8.95;;;0.50;99.90;;;;;;4966675;28;20220;-71
2021/01/03 03:26:24;;;;;;;11.75;9.13;;;0.40;99.90;;;;;;4969563;28;20231;-71
2021/01/03 03:28:50;;;;;;;10.60;8.25;;;0.40;99.90;;;;;;4971298;28;20208;-71
2021/01/03 03:31:16;;;;;;;10.82;8.23;;;0.40;99.90;;;;;;4971386;28;20262;-70
2021/01/03 03:33:43;;;;;;;10.07;9.07;;;0.50;99.90;;;;;;4970691;28;20712;-71
2021/01/03 03:36:09;;;;;;;9.52;8.32;;;0.50;99.90;;;;;;4971296;28;20208;-71
2021/01/03 03:38:35;;;;;;;10.25;7.93;;;0.40;99.90;;;;;;4971123;28;20204;-71
2021/01/03 03:41:02;;;;;;;11.88;8.80;;;0.40;99.90;;;;;;4970937;28;20223;-71
2021/01/03 03:43:28;;;;;;;14.05;9.05;;;0.40;99.90;;;;;;4970413;28;20730;-71
2021/01/03 03:45:54;;;;;;;11.27;9.45;;;0.40;99.90;;;;;;4970914;28;20214;-71
2021/01/03 03:48:20;;;;;;;10.50;9.40;;;0.40;99.90;;;;;;4971010;28;20211;-71
2021/01/03 03:50:47;;;;;;;13.25;8.38;;;0.30;99.90;;;;;;4970919;28;20211;-71
2021/01/03 03:53:13;;;;;;;10.98;8.48;;;0.30;99.90;;;;;;4970461;28;20206;-71
2021/01/03 03:55:40;;;;;;;13.30;9.43;;;0.30;99.90;;;;;;4970009;28;20258;-71
2021/01/03 03:58:07;;;;;;;10.65;8.90;;;0.30;99.90;;;;;;4968500;28;20746;-71
2021/01/03 04:00:33;;;;;;;10.20;8.38;;;0.30;99.90;;;;;;4970551;28;20675;-71
2021/01/03 04:02:59;;;;;;;11.40;9.00;;;0.30;99.90;;;;;;4970257;28;20207;-71
2021/01/03 04:05:26;;;;;;;10.95;9.27;;;0.40;99.90;;;;;;4970981;28;20207;-70
2021/01/03 04:07:53;;;;;;;9.43;7.32;;;0.40;99.90;;;;;;4970490;28;20271;-71
2021/01/03 04:10:20;;;;;;;12.40;9.45;;;0.40;99.90;;;;;;4970700;28;20212;-71
2021/01/03 04:12:46;;;;;;;13.20;9.13;;;0.40;99.90;;;;;;4969887;28;20230;-71
2021/01/03 04:15:17;;;;;;;13.23;9.38;;;0.40;99.90;;;;;;4970357;28;20220;-71
2021/01/03 04:17:44;;;;;;;11.02;8.43;;;0.40;99.90;;;;;;4970285;28;20200;-71
2021/01/03 04:20:15;;;;;;;9.75;8.38;;;0.30;99.90;;;;;;4969776;28;20219;-71
2021/01/03 04:22:41;;;;;;;12.30;9.50;;;0.40;99.90;;;;;;4969896;28;20377;-71
2021/01/03 04:25:10;;;;;;;11.13;9.15;;;0.40;99.90;;;;;;4970412;28;20574;-71
2021/01/03 04:27:36;;;;;;;10.32;8.68;;;0.40;99.90;;;;;;4970368;28;20646;-73
2021/01/03 04:30:04;;;;;;;11.00;9.15;;;0.40;99.90;;;;;;4970359;28;20208;-71
2021/01/03 04:32:30;;;;;;;8.88;7.93;;;0.30;99.90;;;;;;4970064;28;20558;-71
2021/01/03 04:34:56;;;;;;;9.93;8.40;;;0.30;99.90;;;;;;4970046;28;20351;-71
2021/01/03 04:37:22;;;;;;;13.25;9.63;;;0.30;99.90;;;;;;4970099;28;20204;-71
2021/01/03 04:39:48;;;;;;;10.52;8.95;;;0.30;99.90;;;;;;4970012;28;20204;-71
2021/01/03 04:42:20;;;;;;;12.77;8.90;;;0.30;99.90;;;;;;4969495;28;20208;-71
2021/01/03 04:44:49;;;;;;;12.93;10.05;;;0.30;99.90;;;;;;4969848;28;20235;-71
2021/01/03 04:47:25;;;;;;;10.50;8.68;;;0.30;99.90;;;;;;4969870;28;20254;-71
2021/01/03 04:50:02;;;;;;;10.48;8.30;;;0.30;99.90;;;;;;4970101;28;20207;-72
2021/01/03 04:53:07;;;;;;;9.32;8.13;;;0.30;99.90;;;;;;4969389;28;20211;-71
2021/01/03 04:55:37;;;;;;;10.30;8.45;;;0.30;99.90;;;;;;4970055;28;20230;-71
2021/01/03 04:58:17;;;;;;;12.88;9.00;;;0.30;99.90;;;;;;4970142;28;20466;-71
2021/01/03 05:00:47;;;;;;;10.30;7.70;;;0.20;99.90;;;;;;4969731;28;20207;-71
2021/01/03 05:03:38;;;;;;;11.90;9.55;;;0.30;99.90;;;;;;4969238;28;20223;-71
2021/01/03 05:06:10;;;;;;;11.23;8.65;;;0.20;99.90;;;;;;4970049;28;20204;-71
2021/01/03 05:08:41;;;;;;;11.88;8.50;;;0.30;99.90;;;;;;4969608;28;20581;-71
2021/01/03 05:11:11;;;;;;;9.40;8.38;;;0.30;99.90;;;;;;4969953;28;20212;-70
2021/01/03 05:13:47;;;;;;;11.60;9.55;;;0.20;99.90;;;;;;4969059;28;20239;-70
2021/01/03 05:16:16;;;;;;;9.88;8.30;;;0.20;99.90;;;;;;4969742;28;20210;-71
2021/01/03 05:18:42;;;;;;;10.23;7.95;;;0.20;99.90;;;;;;4969668;28;20214;-70
2021/01/03 05:21:09;;;;;;;13.60;9.18;;;0.20;99.90;;;;;;4969585;28;20203;-71
2021/01/03 05:23:36;;;;;;;13.13;9.77;;;0.20;99.90;;;;;;4969240;28;20562;-71
2021/01/03 05:26:05;;;;;;;10.95;8.93;;;0.20;99.90;;;;;;4969563;28;20215;-71
2021/01/03 05:28:33;;;;;;;10.50;8.50;;;0.20;99.90;;;;;;4969504;28;20683;-71
2021/01/03 05:31:12;;;;;;;10.25;8.30;;;0.30;99.90;;;;;;4970949;28;20222;-71
2021/01/03 05:33:51;;;;;;;10.77;8.55;;;0.30;99.90;;;;;;4972627;28;20319;-70
2021/01/03 05:36:39;;;;;;;14.20;9.15;;;0.30;99.90;;;;;;4973318;28;20211;-71
2021/01/03 05:39:12;;;;;;;11.60;8.68;;;0.30;99.90;;;;;;4973463;28;20207;-71
2021/01/03 05:42:01;;;;;;;8.50;7.40;;;0.20;99.90;;;;;;4972865;28;20266;-71
2021/01/03 05:44:29;;;;;;;11.95;9.18;;;0.20;99.90;;;;;;4973474;28;20342;-71
2021/01/03 05:47:06;;;;;;;11.60;8.60;;;0.20;99.90;;;;;;4972832;28;20227;-70
2021/01/03 05:49:32;;;;;;;11.50;8.93;;;0.10;99.90;;;;;;4973003;28;20203;-71
2021/01/03 05:52:10;;;;;;;13.82;9.25;;;0.20;99.90;;;;;;4972631;28;20211;-70
2021/01/03 05:54:38;;;;;;;11.48;9.32;;;0.20;99.90;;;;;;4972611;28;20220;-70
2021/01/03 05:57:07;;;;;;;11.82;8.93;;;0.10;99.90;;;;;;4973249;28;20204;-71
2021/01/03 05:59:37;;;;;;;12.45;9.65;;;0.10;99.90;;;;;;4972601;28;20696;-71
2021/01/03 06:02:11;;;;;;;10.73;8.88;;;0.10;99.90;;;;;;4972571;28;20207;-71
2021/01/03 06:04:38;;;;;;;11.75;8.88;;;0.20;99.90;;;;;;4972801;28;20601;-71
2021/01/03 06:07:17;;;;;;;13.40;9.90;;;0.20;99.90;;;;;;4972813;28;20711;-70
2021/01/03 06:09:43;;;;;;;12.35;9.65;;;0.20;99.90;;;;;;4972319;28;20204;-70
2021/01/03 06:12:15;;;;;;;12.90;9.68;;;0.20;99.90;;;;;;4972239;28;20203;-70
2021/01/03 06:14:43;;;;;;;11.98;9.82;;;0.10;99.90;;;;;;4972411;28;20227;-71
2021/01/03 06:17:20;;;;;;;12.55;9.30;;;0.10;99.90;;;;;;4972560;28;20667;-73
2021/01/03 06:19:48;;;;;;;13.05;9.60;;;0.10;99.90;;;;;;4972281;28;20205;-73
2021/01/03 06:22:34;;;;;;;13.45;10.35;;;0.10;99.90;;;;;;4971757;28;20231;-70
2021/01/03 06:25:08;;;;;;;14.57;10.27;;;0.20;99.90;;;;;;4972630;28;20235;-73
2021/01/03 06:27:35;;;;;;;14.07;10.30;;;0.20;99.90;;;;;;4972188;28;20231;-70
2021/01/03 06:30:05;;;;;;;12.23;9.57;;;0.20;99.90;;;;;;4972594;28;20237;-70
2021/01/03 06:32:53;;;;;;;16.10;11.25;;;0.10;99.90;;;;;;4971604;28;20274;-70
2021/01/03 06:35:29;;;;;;;12.95;9.60;;;0.10;99.90;;;;;;4972400;28;20236;-70
2021/01/03 06:38:03;;;;;;;12.18;9.10;;;0.10;99.90;;;;;;4971957;28;20203;-73
2021/01/03 06:40:34;;;;;;;15.02;11.88;;;0.10;99.90;;;;;;4972576;28;20305;-70
2021/01/03 06:43:34;;;;;;;13.68;10.40;;;0.10;99.90;;;;;;4971811;28;20215;-70
2021/01/03 06:46:28;;;;;;;14.73;10.90;;;0.10;99.90;;;;;;4972206;28;20266;-70
2021/01/03 06:49:21;;;;;;;17.90;11.10;;;0.10;99.90;;;;;;4971746;28;20386;-71
2021/01/03 06:52:13;;;;;;;13.50;10.60;;;0.10;99.90;;;;;;4971399;28;20484;-70
2021/01/03 06:55:18;;;;;;;13.48;10.57;;;0.20;99.90;;;;;;4971738;28;20231;-73
2021/01/03 06:58:18;;;;;;;16.85;12.00;;;0.20;99.90;;;;;;4938732;28;20216;-71
2021/01/03 07:00:48;;;;;;;15.70;11.35;;;0.20;99.90;;;;;;4971403;28;20694;-71
2021/01/03 07:03:23;;;;;;;15.85;10.55;;;0.20;99.90;;;;;;4971388;28;20246;-70
2021/01/03 07:05:53;;;;;;;15.75;12.45;;;0.20;99.90;;;;;;4971713;28;20207;-71
2021/01/03 07:08:21;;;;;;;13.20;10.68;;;0.10;99.90;;;;;;4971960;28;20742;-71
2021/01/03 07:10:47;;;;;;;16.10;11.63;;;0.10;99.90;;;;;;4971414;28;20392;-74
2021/01/03 07:13:37;;;;;;;14.70;11.43;;;0.20;99.90;;;;;;4971066;28;20250;-74
2021/01/03 07:16:04;;;;;;;14.60;11.48;;;0.20;99.90;;;;;;4971433;28;20359;-71
2021/01/03 07:18:42;;;;;;;14.25;11.50;;;0.30;99.90;;;;;;4971828;28;20215;-72
2021/01/03 07:21:32;;;;;;;14.52;11.07;;;0.40;99.90;;;;;;4971407;28;20713;-71
2021/01/03 07:24:27;;;;;;;15.15;10.80;;;0.30;99.90;;;;;;4970737;28;20231;-71
2021/01/03 07:27:21;;;;;;;14.45;10.35;;;0.30;99.90;;;;;;4971122;28;20228;-71
2021/01/03 07:30:01;;;;;;;14.32;10.52;;;0.30;99.90;;;;;;4970690;28;20278;-71
2021/01/03 07:32:41;;;;;;;13.75;10.07;;;0.30;99.90;;;;;;4970620;28;20203;-71
2021/01/03 07:35:11;;;;;;;16.13;12.20;;;0.30;99.90;;;;;;4970716;28;20231;-71
2021/01/03 07:37:38;;;;;;;14.85;11.43;;;0.30;99.90;;;;;;4970765;28;20200;-72
2021/01/03 07:40:07;;;;;;;13.38;10.48;;;0.20;99.90;;;;;;4970759;28;20203;-71
2021/01/03 07:42:35;;;;;;;14.98;10.25;;;0.20;99.90;;;;;;4970326;28;20208;-71
2021/01/03 07:45:15;;;;;;;16.13;11.43;;;0.30;99.90;;;;;;4970735;28;20227;-71
2021/01/03 07:47:44;;;;;;;12.93;9.93;;;0.20;99.90;;;;;;4970867;28;20220;-72
2021/01/03 07:50:31;;;;;;;13.02;9.55;;;0.30;99.90;;;;;;4970505;28;20683;-71
2021/01/03 07:53:16;;;;;;;13.48;10.25;;;0.30;99.90;;;;;;4970063;28;20204;-71
2021/01/03 07:55:44;;;;;;;13.60;10.52;;;0.30;99.90;;;;;;4975650;28;20250;-71
2021/01/03 07:58:14;;;;;;;13.45;9.93;;;0.40;99.90;;;;;;4970238;28;20222;-71
2021/01/03 08:00:42;;;;;;;11.68;9.20;;;0.40;99.90;;;;;;4970418;28;20590;-71
2021/01/03 08:03:12;;;;;;;12.95;9.38;;;0.40;99.90;;;;;;4969925;28;20211;-71
2021/01/03 08:05:40;;;;;;;10.52;9.35;;;0.40;99.90;;;;;;4970602;28;20231;-71
2021/01/03 08:08:19;;;;;;;12.50;10.20;;;0.40;99.90;;;;;;4970298;28;20699;-71
2021/01/03 08:10:47;;;;;;;12.90;9.95;;;0.40;99.90;;;;;;4970362;28;20687;-71
2021/01/03 08:13:18;;;;;;;14.13;10.43;;;0.40;99.90;;;;;;4969493;28;20855;-71
2021/01/03 08:15:44;;;;;;;12.65;9.43;;;0.40;99.90;;;;;;4970328;28;20259;-71
2021/01/03 08:18:15;;;;;;;11.48;9.05;;;0.40;99.90;;;;;;4970214;28;20200;-71
2021/01/03 08:20:41;;;;;;;12.30;9.68;;;0.50;99.90;;;;;;4969914;28;20235;-71
2021/01/03 08:23:17;;;;;;;13.13;9.32;;;0.50;99.90;;;;;;4969884;28;20579;-71
2021/01/03 08:25:43;;;;;;;12.30;9.10;;;0.40;99.90;;;;;;4969997;28;20214;-71
2021/01/03 08:28:13;;;;;;;13.75;10.30;;;0.40;99.90;;;;;;4970075;28;20612;-72
2021/01/03 08:30:40;;;;;;;13.45;10.38;;;0.50;99.90;;;;;;4969867;28;20232;-71
2021/01/03 08:33:10;;;;;;;12.75;9.30;;;0.50;99.90;;;;;;4969645;28;20583;-71
2021/01/03 08:35:36;;;;;;;12.63;9.55;;;0.50;99.90;;;;;;4970045;28;20238;-72
2021/01/03 08:38:03;;;;;;;12.57;9.40;;;0.50;99.90;;;;;;4969929;28;20288;-71
2021/01/03 08:40:32;;;;;;;13.65;9.73;;;0.60;99.90;;;;;;4970113;28;20211;-72
2021/01/03 08:43:04;;;;;;;13.88;9.63;;;0.60;99.90;;;;;;4969082;28;20258;-71
2021/01/03 08:45:33;;;;;;;15.02;10.52;;;0.60;99.90;;;;;;4971324;28;20595;-73
2021/01/03 08:48:02;;;;;;;13.68;10.07;;;0.60;99.90;;;;;;4969763;28;20232;-73
2021/01/03 08:50:31;;;;;;;14.90;10.40;;;0.60;99.90;;;;;;4969667;28;20203;-74
2021/01/03 08:52:59;;;;;;;12.63;9.40;;;0.60;99.90;;;;;;4969437;28;20215;-74
2021/01/03 08:55:28;;;;;;;14.40;10.88;;;0.60;99.90;;;;;;4969979;28;20672;-73
2021/01/03 08:57:57;;;;;;;15.13;10.65;;;0.60;99.90;;;;;;4969784;28;20282;-73
2021/01/03 09:00:25;;;;;;;14.65;10.80;;;0.70;99.90;;;;;;4969848;28;20207;-73
2021/01/03 09:02:56;;;;;;;14.73;10.10;;;0.70;99.90;;;;;;5056043;22;20417;-69
2021/01/03 09:05:27;;;;;;;12.27;9.75;;;0.70;99.90;;;;;;4970012;28;20211;-69
2021/01/03 09:07:54;;;;;;;12.95;9.80;;;0.80;99.90;;;;;;4973708;28;20224;-67
2021/01/03 09:10:26;;;;;;;12.57;9.50;;;0.80;99.90;;;;;;4973599;28;20578;-68
2021/01/03 09:13:08;;;;;;;10.98;9.68;;;0.80;99.90;;;;;;4973134;28;20577;-69
2021/01/03 09:15:38;;;;;;;12.45;9.93;;;0.90;99.90;;;;;;4973106;28;20683;-68
2021/01/03 09:18:15;;;;;;;12.30;9.13;;;0.90;99.90;;;;;;4973734;28;20210;-69
2021/01/03 09:20:44;;;;;;;11.88;9.23;;;0.90;99.90;;;;;;4978162;28;20203;-69
2021/01/03 09:23:13;;;;;;;12.13;8.48;;;1.00;99.90;;;;;;4972961;28;20204;-67
2021/01/03 09:25:41;;;;;;;12.52;9.30;;;1.00;99.90;;;;;;4973400;28;20208;-68
2021/01/03 09:28:11;;;;;;;14.38;9.85;;;1.00;99.90;;;;;;4973144;28;20227;-67
2021/01/03 09:30:40;;;;;;;13.38;9.55;;;1.00;99.90;;;;;;4973036;28;20231;-68
2021/01/03 09:33:14;;;;;;;12.18;9.15;;;1.00;99.90;;;;;;4972691;28;20584;-68
2021/01/03 09:35:55;;;;;;;13.80;9.40;;;1.00;99.90;;;;;;4972754;28;20208;-69
2021/01/03 09:38:35;;;;;;;13.20;9.35;;;1.00;99.90;;;;;;4973019;28;20211;-70
2021/01/03 09:41:12;;;;;;;10.82;9.18;;;1.10;99.90;;;;;;4972956;28;20210;-70
2021/01/03 09:43:53;;;;;;;19.65;10.18;;;1.20;99.90;;;;;;4972641;28;20239;-70
2021/01/03 09:46:24;;;;;;;13.88;9.52;;;1.20;99.90;;;;;;4972842;28;20230;-70
2021/01/03 09:48:50;;;;;;;11.70;9.82;;;1.30;99.90;;;;;;4973299;28;20204;-70
2021/01/03 09:51:30;;;;;;;13.10;9.00;;;1.30;99.90;;;;;;4972637;28;20719;-69
2021/01/03 09:54:04;;;;;;;10.15;8.25;;;1.40;99.90;;;;;;4972680;28;20234;-70
2021/01/03 09:56:33;;;;;;;12.50;9.77;;;1.50;99.90;;;;;;4972664;28;20823;-69
2021/01/03 09:59:09;;;;;;;13.57;9.30;;;1.50;99.90;;;;;;4972758;28;20579;-69
2021/01/03 10:01:36;;;;;;;14.15;10.32;;;1.40;99.90;;;;;;4971944;28;20215;-69
2021/01/03 10:04:15;;;;;;;11.20;8.77;;;1.60;99.90;;;;;;4972598;28;20219;-69
2021/01/03 10:06:44;;;;;;;12.35;8.65;;;1.60;99.90;;;;;;4972659;28;20231;-69
2021/01/03 10:09:13;;;;;;;14.75;8.85;;;1.60;99.90;;;;;;4972222;28;20200;-70
2021/01/03 10:11:41;;;;;;;10.48;8.35;;;1.70;99.90;;;;;;4972059;28;20208;-69
2021/01/03 10:14:11;;;;;;;10.68;8.35;;;1.80;99.90;;;;;;4972258;28;20239;-70
2021/01/03 10:16:40;;;;;;;10.55;8.23;;;1.90;99.90;;;;;;4972061;28;20195;-69
2021/01/03 10:19:18;;;;;;;12.77;8.02;;;1.80;99.90;;;;;;4972717;28;20412;-69
2021/01/03 10:21:45;;;;;;;11.30;8.90;;;1.90;99.90;;;;;;4971717;28;20204;-69
2021/01/03 10:24:16;;;;;;;10.45;8.40;;;1.90;99.90;;;;;;4972288;28;20223;-69
2021/01/03 10:26:44;;;;;;;10.20;8.93;;;1.80;99.90;;;;;;4972207;28;20250;-70
2021/01/03 10:29:12;;;;;;;12.68;9.05;;;1.80;99.90;;;;;;4972460;28;20211;-70
2021/01/03 10:31:41;;;;;;;13.27;8.07;;;1.80;99.90;;;;;;4971607;28;20214;-70
2021/01/03 10:34:09;;;;;;;12.13;9.23;;;1.80;99.90;;;;;;4972027;28;20224;-69
2021/01/03 10:36:35;;;;;;;12.32;9.13;;;1.70;99.90;;;;;;4972260;28;20200;-72
2021/01/03 10:39:04;;;;;;;10.88;9.35;;;1.70;99.90;;;;;;4940959;28;20578;-68
2021/01/03 10:41:32;;;;;;;13.32;9.25;;;1.60;99.90;;;;;;4988431;28;20207;-69
2021/01/03 10:43:58;;;;;;;12.60;9.05;;;1.60;99.90;;;;;;4988777;28;20226;-71
2021/01/03 10:46:26;;;;;;;13.18;9.70;;;1.60;99.90;;;;;;5003794;28;20670;-71
2021/01/03 10:48:52;;;;;;;14.25;9.15;;;1.60;99.90;;;;;;4971358;28;20619;-71
2021/01/03 10:51:19;;;;;;;12.45;9.70;;;1.60;99.90;;;;;;4977505;28;20286;-70
2021/01/03 10:53:45;;;;;;;17.05;9.55;;;1.60;99.90;;;;;;4988504;28;20218;-70
2021/01/03 10:56:11;;;;;;;12.30;9.07;;;1.60;99.90;;;;;;4989391;28;20214;-71
2021/01/03 10:58:39;;;;;;;12.23;7.95;;;1.60;99.90;;;;;;4989295;28;20207;-70
2021/01/03 11:01:06;;;;;;;12.15;8.88;;;1.50;99.90;;;;;;4989477;28;20207;-71
2021/01/03 11:03:33;;;;;;;12.00;9.25;;;1.50;99.90;;;;;;4988595;28;20227;-72
2021/01/03 11:05:59;;;;;;;11.30;8.65;;;1.50;99.90;;;;;;4989453;28;20576;-72
2021/01/03 11:08:25;;;;;;;10.05;7.70;;;1.50;99.90;;;;;;4988696;28;20318;-71
2021/01/03 11:10:51;;;;;;;12.50;9.07;;;1.50;99.90;;;;;;4988951;28;20611;-72
2021/01/03 11:13:18;;;;;;;13.38;9.45;;;1.40;99.90;;;;;;4988413;28;20231;-71
2021/01/03 11:15:44;;;;;;;13.50;8.93;;;1.40;99.90;;;;;;4988853;28;20211;-71
2021/01/03 11:18:10;;;;;;;11.85;8.68;;;1.40;99.90;;;;;;4988188;28;20257;-71
2021/01/03 11:20:37;;;;;;;11.55;8.82;;;1.50;99.90;;;;;;4988122;28;20277;-71
2021/01/03 11:23:03;;;;;;;18.50;9.43;;;1.60;99.90;;;;;;4988419;28;20246;-71
2021/01/03 11:25:29;;;;;;;13.30;9.75;;;1.50;99.90;;;;;;4999494;28;20198;-71
2021/01/03 11:27:55;;;;;;;14.20;10.48;;;1.50;99.90;;;;;;4993668;28;20234;-70
2021/01/03 11:30:22;;;;;;;10.73;9.40;;;1.50;99.90;;;;;;4971841;28;20660;-71
2021/01/03 11:32:49;;;;;;;13.27;9.90;;;1.50;99.90;;;;;;4971886;28;20294;-72
2021/01/03 11:35:17;;;;;;;10.27;8.70;;;1.50;99.90;;;;;;4984214;28;20226;-72
2021/01/03 11:37:47;;;;;;;11.93;9.57;;;1.50;99.90;;;;;;5003598;28;20288;-73
2021/01/03 11:40:14;;;;;;;14.10;9.70;;;1.50;99.90;;;;;;5006489;28;20205;-72
2021/01/03 11:42:40;;;;;;;15.50;10.52;;;1.60;99.90;;;;;;5005409;28;20672;-70
2021/01/03 11:45:09;;;;;;;12.88;9.80;;;1.60;99.90;;;;;;4992255;28;20234;-70
2021/01/03 11:47:36;;;;;;;12.70;9.95;;;1.60;99.90;;;;;;4985519;28;20215;-70
2021/01/03 11:50:04;;;;;;;12.98;9.07;;;1.60;99.90;;;;;;4986799;28;20200;-71
2021/01/03 11:52:32;;;;;;;10.90;8.43;;;1.50;99.90;;;;;;4986219;28;20203;-69
2021/01/03 11:54:59;;;;;;;9.25;8.35;;;1.40;99.90;;;;;;4986491;28;20219;-70
2021/01/03 11:57:25;;;;;;;12.65;8.82;;;1.50;99.90;;;;;;4988002;28;20195;-70
2021/01/03 11:59:52;;;;;;;11.25;9.45;;;1.50;99.90;;;;;;4987236;28;20207;-69
2021/01/03 12:02:19;;;;;;;13.40;9.35;;;1.60;99.90;;;;;;4986665;28;20595;-70
2021/01/03 12:04:45;;;;;;;10.23;8.88;;;1.60;99.90;;;;;;4986881;28;20231;-70
2021/01/03 12:07:14;;;;;;;12.10;9.10;;;1.70;99.90;;;;;;4989757;28;20226;-70
2021/01/03 12:09:42;;;;;;;13.82;9.30;;;1.70;99.90;;;;;;5005091;28;20202;-69
2021/01/03 12:12:12;;;;;;;11.48;8.93;;;1.70;99.90;;;;;;5004843;28;20202;-70
2021/01/03 12:14:39;;;;;;;11.48;8.45;;;1.70;99.90;;;;;;5005614;28;20223;-69
2021/01/03 12:17:09;;;;;;;12.13;9.57;;;1.70;99.90;;;;;;4983799;28;20206;-70
2021/01/03 12:19:36;;;;;;;11.68;8.50;;;1.60;99.90;;;;;;4990501;28;20208;-69
2021/01/03 12:22:04;;;;;;;11.80;9.38;;;1.60;99.90;;;;;;5005739;28;20229;-70
2021/01/03 12:24:30;;;;;;;12.05;8.70;;;1.60;99.90;;;;;;5006521;28;20222;-71
2021/01/03 12:26:57;;;;;;;11.68;8.75;;;1.60;99.90;;;;;;5006639;28;20697;-70
2021/01/03 12:29:26;;;;;;;11.80;8.45;;;1.60;99.90;;;;;;5007315;28;20203;-69
2021/01/03 12:31:54;;;;;;;12.75;9.75;;;1.60;99.90;;;;;;5005870;28;20206;-69
2021/01/03 12:34:23;;;;;;;15.23;10.35;;;1.60;99.90;;;;;;5006970;28;20732;-70
2021/01/03 12:36:50;;;;;;;12.20;10.05;;;1.50;99.90;;;;;;5007007;28;20211;-71
2021/01/03 12:39:19;;;;;;;14.02;9.20;;;1.50;99.90;;;;;;5006436;28;20213;-70
2021/01/03 12:41:46;;;;;;;12.48;9.68;;;1.60;99.90;;;;;;5005849;28;20684;-70
2021/01/03 12:44:12;;;;;;;12.77;9.32;;;1.60;99.90;;;;;;5006533;28;20250;-70
2021/01/03 12:46:42;;;;;;;13.40;9.68;;;1.50;99.90;;;;;;5006341;28;20210;-70
2021/01/03 12:49:09;;;;;;;16.88;10.95;;;1.60;99.90;;;;;;5006738;28;20412;-71
2021/01/03 12:51:36;;;;;;;12.98;9.70;;;1.60;99.90;;;;;;5005854;28;20628;-71
2021/01/03 12:54:02;;;;;;;10.80;8.88;;;1.70;99.90;;;;;;5006165;28;20261;-70
2021/01/03 12:56:30;;;;;;;11.15;9.05;;;1.70;99.90;;;;;;5005786;28;20229;-71
2021/01/03 12:58:59;;;;;;;10.48;8.68;;;1.80;99.90;;;;;;5006788;28;20206;-70
2021/01/03 13:01:29;;;;;;;12.23;9.45;;;1.80;99.90;;;;;;5005721;28;20202;-70
2021/01/03 13:03:56;;;;;;;11.07;9.15;;;1.80;99.90;;;;;;5006126;28;20599;-70